createdAt,value
2023-02-19T00:12:02.919Z,90.68
2023-02-19T00:27:02.719Z,91.93
2023-02-19T00:42:02.554Z,94.04
2023-02-19T00:57:02.404Z,92.69
2023-02-19T01:12:02.255Z,94.66
2023-02-19T01:27:02.095Z,96.31
2023-02-19T01:42:02.237Z,97.19
2023-02-19T01:57:01.813Z,96.62
2023-02-19T02:12:01.632Z,95.43
2023-02-19T02:27:01.468Z,96.26
2023-02-19T02:42:01.312Z,94.33
2023-02-19T02:57:01.153Z,94.64
2023-02-19T03:12:01.001Z,96.81
2023-02-19T03:27:00.830Z,97.85
2023-02-19T03:42:00.679Z,97.52
2023-02-19T03:57:00.551Z,98.19
2023-02-19T04:12:00.373Z,96.57
2023-02-19T04:27:00.200Z,97.34
2023-02-19T04:42:00.049Z,99.01
2023-02-19T04:56:59.861Z,98.94
2023-02-19T05:11:59.711Z,98.47
2023-02-19T05:26:59.560Z,99.93
2023-02-19T05:41:59.382Z,99.20
2023-02-19T05:56:59.253Z,98.99
2023-02-19T06:11:59.076Z,99.82
2023-02-19T06:26:58.914Z,99.41
2023-02-19T06:41:58.791Z,98.94
2023-02-19T06:56:58.602Z,97.17
2023-02-19T07:11:58.468Z,96.55
2023-02-19T07:26:58.305Z,94.12
2023-02-19T07:41:58.139Z,92.82
2023-02-19T07:56:58.001Z,90.81
2023-02-19T08:11:57.831Z,87.24
2023-02-19T08:26:57.657Z,85.91
2023-02-19T08:41:57.530Z,86.43
2023-02-19T08:56:57.322Z,87.24
2023-02-19T09:11:57.214Z,84.34
2023-02-19T09:26:57.537Z,84.11
2023-02-19T09:41:56.846Z,82.23
2023-02-19T09:56:56.689Z,81.26
2023-02-19T10:11:57.481Z,79.39
2023-02-19T10:26:56.493Z,75.84
2023-02-19T10:41:56.234Z,76.74
2023-02-19T10:56:57.100Z,73.12
2023-02-19T11:11:55.945Z,70.61
2023-02-19T11:26:55.741Z,69.48
2023-02-19T11:41:55.693Z,65.76
2023-02-19T11:56:55.503Z,65.37
2023-02-19T12:11:55.358Z,67.30
2023-02-19T12:26:55.156Z,66.93
2023-02-19T12:41:55.078Z,66.88
2023-02-19T12:56:54.920Z,64.99
2023-02-19T13:11:55.794Z,60.95
2023-02-19T13:26:54.591Z,59.56
2023-02-19T13:41:54.462Z,57.01
2023-02-19T13:57:00.451Z,57.84
2023-02-19T14:11:54.145Z,58.66
2023-02-19T14:26:53.883Z,57.42
2023-02-19T14:41:53.736Z,57.63
2023-02-19T14:56:53.581Z,59.28
2023-02-19T15:11:53.431Z,56.08
2023-02-19T15:26:53.263Z,59.85
2023-02-19T15:41:53.126Z,55.95
2023-02-19T15:56:52.966Z,56.62
2023-02-19T16:11:52.856Z,56.85
2023-02-19T16:26:52.647Z,59.27
2023-02-19T16:41:52.500Z,60.53
2023-02-19T16:56:52.420Z,60.64
2023-02-19T17:11:52.374Z,63.92
2023-02-19T17:26:53.108Z,67.27
2023-02-19T17:41:52.225Z,67.71
2023-02-19T17:56:51.693Z,67.40
2023-02-19T18:11:51.596Z,67.61
2023-02-19T18:26:51.385Z,68.41
2023-02-19T18:41:51.219Z,69.58
2023-02-19T18:56:51.077Z,71.90
2023-02-19T19:11:50.991Z,72.00
2023-02-19T19:26:50.749Z,74.77
2023-02-19T19:41:50.686Z,75.85
2023-02-19T19:56:50.469Z,76.99
2023-02-19T20:11:51.287Z,77.09
2023-02-19T20:26:50.162Z,78.38
2023-02-19T20:41:49.974Z,77.72
2023-02-19T20:56:51.214Z,77.61
2023-02-19T21:11:49.642Z,78.45
2023-02-19T21:26:49.927Z,78.45
2023-02-19T21:41:49.360Z,79.83
2023-02-19T21:56:49.153Z,81.85
2023-02-19T22:11:48.997Z,83.00
2023-02-19T22:26:48.820Z,83.06
2023-02-19T22:41:48.682Z,84.28
2023-02-19T22:56:48.560Z,85.26
2023-02-19T23:11:48.360Z,86.10
2023-02-19T23:26:49.150Z,86.30
2023-02-19T23:41:48.072Z,87.35
2023-02-19T23:56:47.910Z,88.53
